createdAt,value
2023-02-01T08:17:48.006Z,0.50
2023-02-01T08:18:47.868Z,0.50
2023-02-01T08:19:48.751Z,0.50
2023-02-01T08:20:47.609Z,0.50
2023-02-01T08:21:48.057Z,0.50
2023-02-01T08:22:47.515Z,0.50
2023-02-01T08:32:45.517Z,0.34
2023-02-01T08:33:45.321Z,0.34
2023-02-01T08:34:45.125Z,0.34
2023-02-01T08:35:44.959Z,0.34
2023-02-01T08:36:44.806Z,0.35
2023-02-01T08:37:44.585Z,0.40
2023-02-01T08:38:44.406Z,0.46
2023-02-01T08:39:46.212Z,0.50
2023-02-01T08:40:44.030Z,0.50
2023-02-01T08:41:43.828Z,0.50
2023-02-01T08:42:43.636Z,0.50
2023-02-01T09:20:35.977Z,0.51
2023-02-01T09:21:35.794Z,0.51
2023-02-01T09:22:35.574Z,0.52
2023-02-01T09:23:35.392Z,0.53
2023-02-01T09:24:35.227Z,0.52
2023-02-01T09:25:34.974Z,0.51
2023-02-01T09:26:34.831Z,0.52
2023-02-01T09:27:35.373Z,0.51
2023-02-01T09:29:34.177Z,0.53
2023-02-01T09:31:34.022Z,0.52
2023-02-01T09:35:32.970Z,0.54
2023-02-01T09:36:32.760Z,0.54
2023-02-01T09:37:32.559Z,0.54
2023-02-01T09:38:33.082Z,0.52
2023-02-01T09:39:32.151Z,0.54
2023-02-01T09:40:32.027Z,0.55
2023-02-01T09:41:31.742Z,0.55
2023-02-01T09:42:31.547Z,0.55
2023-02-01T09:43:31.319Z,0.54
2023-02-01T09:44:42.520Z,0.55
2023-02-01T09:45:31.915Z,0.55
2023-02-01T09:46:30.804Z,0.55
2023-02-01T09:47:30.508Z,0.55
2023-02-01T09:48:31.223Z,0.55
2023-02-01T09:49:30.081Z,0.55
2023-02-01T09:50:29.863Z,0.55
2023-02-01T09:51:29.653Z,0.55
2023-02-01T09:52:29.434Z,0.54
2023-02-01T09:53:29.405Z,0.54
2023-02-01T09:54:30.801Z,0.54
2023-02-01T09:55:28.958Z,0.54
2023-02-01T09:56:28.797Z,0.54
2023-02-01T09:57:28.422Z,0.54
2023-02-01T09:58:28.265Z,0.54
2023-02-01T09:59:28.105Z,0.53
2023-02-01T10:00:27.957Z,0.53
2023-02-01T10:01:27.899Z,0.53
2023-02-01T10:02:27.648Z,0.51
2023-02-01T10:03:27.510Z,0.50
2023-02-01T10:04:27.347Z,0.51
2023-02-01T10:05:27.206Z,0.50
2023-02-01T10:06:27.586Z,0.50
2023-02-01T10:07:27.814Z,0.50
2023-02-01T10:08:26.609Z,0.50
2023-02-01T10:09:26.439Z,0.49
2023-02-01T10:10:26.710Z,0.48
2023-02-01T10:11:25.991Z,0.48
2023-02-01T10:12:25.838Z,0.50
2023-02-01T10:13:25.579Z,0.51
2023-02-01T10:14:25.386Z,0.50
2023-02-01T10:15:25.731Z,0.51
2023-02-01T10:16:25.213Z,0.51
2023-02-01T10:17:25.881Z,0.51
2023-02-01T10:18:24.687Z,0.51
2023-02-01T10:19:24.473Z,0.51
2023-02-01T10:20:24.951Z,0.50
2023-02-01T10:21:24.081Z,0.50
2023-02-01T10:22:26.699Z,0.50
2023-02-01T10:23:33.934Z,0.50
2023-02-01T10:24:24.500Z,0.50
2023-02-01T11:07:15.088Z,0.51
2023-02-01T11:08:14.877Z,0.50
2023-02-01T11:09:14.709Z,0.51
2023-02-01T11:10:14.500Z,0.51
2023-02-01T11:11:14.538Z,0.51
2023-02-01T11:12:14.087Z,0.51
2023-02-01T11:13:13.933Z,0.51
2023-02-01T11:14:13.770Z,0.51
2023-02-01T11:51:06.949Z,0.51
2023-02-01T11:52:06.251Z,0.51
2023-02-01T11:53:06.059Z,0.50
2023-02-01T11:54:05.864Z,0.51
2023-02-01T11:55:05.689Z,0.51
2023-02-01T11:56:05.489Z,0.50
2023-02-01T11:57:06.014Z,0.51
2023-02-01T11:58:05.106Z,0.50
2023-02-01T11:59:04.897Z,0.50
2023-02-01T12:00:04.704Z,0.51
2023-02-01T12:01:04.560Z,0.51
2023-02-01T12:02:04.341Z,0.51
2023-02-01T12:03:04.125Z,0.51
2023-02-01T12:04:03.953Z,0.51
2023-02-01T12:05:03.811Z,0.51
2023-02-01T12:19:01.200Z,0.50
2023-02-01T12:20:01.018Z,0.51
2023-02-01T12:21:00.970Z,0.51
2023-02-01T12:22:00.634Z,0.50
2023-02-01T12:23:00.446Z,0.51
2023-02-01T12:24:00.259Z,0.51
2023-02-01T12:25:00.111Z,0.50
2023-02-01T12:25:59.909Z,0.51
2023-02-01T12:26:59.736Z,0.51
2023-02-01T12:27:59.510Z,0.51
2023-02-01T12:28:59.348Z,0.51
2023-02-01T12:29:59.150Z,0.51
2023-02-01T12:30:59.013Z,0.50
2023-02-01T12:31:58.817Z,0.50
2023-02-01T12:32:58.569Z,0.51
2023-02-01T12:33:58.395Z,0.51
2023-02-01T12:34:58.190Z,0.51
2023-02-01T12:35:58.008Z,0.51
2023-02-01T12:36:57.824Z,0.50
2023-02-01T12:37:57.693Z,0.51
2023-02-01T12:38:57.455Z,0.52
2023-02-01T12:39:57.253Z,0.51
2023-02-01T12:40:57.100Z,0.52
2023-02-01T12:41:56.895Z,0.51
2023-02-01T12:42:56.710Z,0.51
2023-02-01T12:43:56.543Z,0.51
2023-02-01T12:44:56.333Z,0.51
2023-02-01T12:45:56.295Z,0.51
2023-02-01T12:46:55.968Z,0.51
2023-02-01T12:47:55.792Z,0.51
2023-02-01T12:48:55.601Z,0.52
2023-02-01T12:49:55.424Z,0.51
2023-02-01T12:50:55.253Z,0.51
2023-02-01T12:51:55.072Z,0.51
2023-02-01T12:52:54.878Z,0.51
2023-02-01T12:53:54.800Z,0.51
2023-02-01T12:54:54.520Z,0.51
2023-02-01T12:55:54.331Z,0.51
2023-02-01T12:56:54.168Z,0.51
2023-02-01T12:57:53.974Z,0.51
2023-02-01T12:58:53.781Z,0.51
2023-02-01T12:59:53.603Z,0.50
2023-02-01T13:43:45.184Z,0.50
2023-02-01T13:44:44.990Z,0.51
2023-02-01T13:45:44.839Z,0.51
2023-02-01T13:46:44.631Z,0.51
2023-02-01T13:47:44.405Z,0.50
2023-02-01T13:48:44.198Z,0.50
2023-02-01T13:49:44.013Z,0.51
2023-02-01T13:50:43.806Z,0.51
2023-02-01T13:51:43.631Z,0.51
2023-02-01T14:09:40.200Z,0.52
2023-02-01T14:10:40.010Z,0.50
2023-02-01T14:11:39.845Z,0.51
2023-02-01T14:12:39.646Z,0.51
2023-02-01T14:13:39.488Z,0.51
2023-02-01T14:14:39.296Z,0.50
2023-02-01T14:15:39.139Z,0.51
2023-02-01T14:16:38.928Z,0.51
2023-02-01T14:17:38.765Z,0.50
2023-02-01T14:18:38.568Z,0.52
2023-02-01T14:24:37.474Z,0.51
2023-02-01T14:30:36.402Z,0.51
2023-02-01T14:31:36.387Z,0.51
2023-02-01T14:32:36.023Z,0.51
2023-02-01T14:33:35.844Z,0.51
2023-02-01T14:34:35.658Z,0.51
2023-02-01T14:35:35.468Z,0.51
2023-02-01T14:36:35.304Z,0.51
2023-02-01T14:37:35.113Z,0.51
2023-02-01T14:38:34.935Z,0.50
2023-02-01T14:39:34.750Z,0.51
2023-02-01T14:40:34.571Z,0.50
2023-02-01T14:41:34.376Z,0.51
2023-02-01T14:42:34.209Z,0.51
2023-02-01T14:43:36.216Z,0.51
2023-02-01T14:44:33.837Z,0.52
2023-02-01T14:45:33.641Z,0.50
2023-02-01T14:46:33.482Z,0.51
2023-02-01T14:47:33.250Z,0.50
2023-02-01T14:48:33.059Z,0.51
2023-02-01T14:49:32.872Z,0.51
2023-02-01T15:24:26.322Z,0.51
2023-02-01T15:25:26.403Z,0.52
2023-02-01T15:26:25.952Z,0.51
2023-02-01T15:27:25.764Z,0.51
2023-02-01T15:28:25.610Z,0.50
2023-02-01T15:29:25.395Z,0.51
2023-02-01T15:30:25.249Z,0.50
2023-02-01T15:31:25.104Z,0.52
2023-02-01T15:32:24.876Z,0.50
2023-02-01T15:33:24.668Z,0.51
2023-02-01T15:34:24.487Z,0.51
2023-02-01T15:35:24.752Z,0.51
2023-02-01T15:36:24.121Z,0.52
2023-02-01T15:37:23.939Z,0.50
2023-02-01T15:38:23.782Z,0.51
2023-02-01T15:39:23.592Z,0.51
2023-02-01T16:39:15.316Z,0.52
2023-02-01T16:40:15.199Z,0.52
2023-02-01T16:41:15.103Z,0.52
2023-02-01T16:42:14.984Z,0.52
2023-02-01T16:46:14.572Z,0.52
2023-02-01T16:51:14.000Z,0.53
2023-02-01T16:52:13.886Z,0.53
2023-02-01T16:53:14.555Z,0.53
2023-02-01T16:54:13.663Z,0.53
2023-02-01T17:32:09.242Z,0.52
2023-02-01T17:33:21.664Z,0.52
2023-02-01T17:35:08.712Z,0.52
2023-02-01T17:36:08.538Z,0.52
2023-02-01T17:37:08.353Z,0.52
2023-02-01T17:38:08.173Z,0.51
2023-02-01T17:39:07.982Z,0.53
2023-02-01T17:40:07.824Z,0.52
2023-02-01T17:41:07.657Z,0.51
2023-02-01T17:42:08.329Z,0.53
2023-02-01T17:43:07.281Z,0.52
2023-02-01T17:44:07.127Z,0.51
2023-02-01T17:45:07.011Z,0.52
2023-02-01T17:46:06.978Z,0.52
2023-02-01T17:47:06.859Z,0.53
2023-02-01T17:48:06.674Z,0.52
2023-02-01T17:49:06.538Z,0.52
2023-02-01T17:50:06.427Z,0.52
2023-02-01T17:51:06.306Z,0.52
2023-02-01T17:52:06.205Z,0.52
2023-02-01T17:53:06.094Z,0.52
2023-02-01T17:54:05.952Z,0.53
2023-02-01T17:55:05.832Z,0.52
2023-02-01T17:56:05.721Z,0.53
2023-02-01T17:57:05.598Z,0.53
2023-02-01T17:58:05.479Z,0.52
2023-02-01T17:59:05.375Z,0.51
2023-02-01T18:00:05.251Z,0.53
2023-02-01T18:01:05.163Z,0.52
2023-02-01T18:02:05.050Z,0.51
2023-02-01T18:03:04.881Z,0.52
2023-02-01T18:04:04.749Z,0.52
2023-02-01T18:05:04.636Z,0.52
2023-02-01T18:06:04.529Z,0.52
2023-02-01T18:07:04.402Z,0.53
2023-02-01T18:08:04.312Z,0.52
2023-02-01T18:09:04.167Z,0.52
2023-02-01T18:10:04.037Z,0.52
2023-02-01T18:11:03.916Z,0.53
2023-02-01T18:12:03.805Z,0.52
2023-02-01T18:13:03.684Z,0.51
2023-02-01T19:04:57.282Z,0.51
2023-02-01T19:05:57.217Z,0.51
2023-02-01T19:06:57.039Z,0.52
2023-02-01T19:07:56.902Z,0.53
2023-02-01T19:08:56.780Z,0.52
2023-02-01T19:09:56.651Z,0.52
2023-02-01T19:10:56.543Z,0.51
2023-02-01T19:11:56.395Z,0.52
2023-02-01T19:12:56.265Z,0.52
2023-02-01T19:13:56.157Z,0.52
2023-02-01T19:14:56.045Z,0.52
2023-02-01T19:15:56.042Z,0.52
2023-02-01T19:16:55.789Z,0.52
2023-02-01T19:17:55.662Z,0.52
2023-02-01T19:18:55.532Z,0.52
2023-02-01T19:19:55.414Z,0.51
2023-02-01T19:20:55.299Z,0.51
2023-02-01T19:21:55.183Z,0.51
2023-02-01T19:22:55.045Z,0.52
2023-02-01T19:23:54.939Z,0.52
2023-02-01T19:24:55.151Z,0.51
2023-02-01T19:25:54.688Z,0.50
2023-02-01T19:26:54.591Z,0.52
2023-02-01T19:27:54.580Z,0.52
2023-02-01T19:28:54.483Z,0.52
2023-02-01T19:29:54.185Z,0.53
2023-02-01T19:30:54.167Z,0.52
2023-02-01T19:31:53.985Z,0.52
2023-02-01T19:32:53.827Z,0.51
2023-02-01T19:33:53.695Z,0.51
2023-02-01T20:32:48.263Z,0.51
2023-02-01T20:33:46.593Z,0.52
2023-02-01T20:34:46.485Z,0.52
2023-02-01T20:35:46.370Z,0.51
2023-02-01T20:36:46.266Z,0.51
2023-02-01T20:37:46.147Z,0.52
2023-02-01T20:38:46.031Z,0.52
2023-02-01T20:39:45.919Z,0.52
2023-02-01T20:40:45.814Z,0.51
2023-02-01T20:41:45.689Z,0.51
2023-02-01T20:42:45.587Z,0.51
2023-02-01T20:43:45.467Z,0.52
2023-02-01T20:44:45.358Z,0.52
2023-02-01T20:45:45.242Z,0.51
2023-02-01T20:46:45.182Z,0.52
2023-02-01T20:47:45.019Z,0.52
2023-02-01T20:48:44.919Z,0.51
2023-02-01T20:49:44.812Z,0.52
2023-02-01T20:50:44.702Z,0.52
2023-02-01T20:51:44.573Z,0.51
2023-02-01T20:52:44.463Z,0.52
2023-02-01T21:46:38.114Z,0.52
2023-02-01T21:47:37.987Z,0.52
2023-02-01T21:49:04.887Z,0.51
2023-02-01T21:50:37.510Z,0.51
2023-02-01T21:51:37.344Z,0.51
2023-02-01T21:52:37.164Z,0.51
2023-02-01T21:53:36.983Z,0.53
2023-02-01T21:54:36.804Z,0.52
2023-02-01T21:55:36.641Z,0.51
2023-02-01T21:56:36.447Z,0.52
2023-02-01T21:57:36.281Z,0.51
2023-02-01T21:58:36.105Z,0.51
2023-02-01T21:59:35.970Z,0.52
2023-02-01T22:00:35.869Z,0.51
2023-02-01T22:01:35.737Z,0.51
2023-02-01T22:02:35.674Z,0.51
2023-02-01T22:03:35.510Z,0.52
2023-02-01T22:04:35.393Z,0.51
2023-02-01T22:05:35.286Z,0.52
2023-02-01T22:06:35.178Z,0.52
2023-02-01T22:07:35.080Z,0.51
2023-02-01T22:08:34.946Z,0.52
2023-02-01T22:09:34.830Z,0.52
2023-02-01T22:10:34.718Z,0.53
2023-02-01T22:11:34.610Z,0.51
2023-02-01T22:12:34.561Z,0.53
2023-02-01T23:35:24.898Z,0.51
2023-02-01T23:36:24.489Z,0.51
